createdAt,value
2018-05-19T00:00:35.699Z,4.67
2018-05-19T00:03:03.208Z,4.53
2018-05-19T00:05:30.715Z,4.60
2018-05-19T00:07:58.226Z,5.10
2018-05-19T00:10:25.719Z,5.30
2018-05-19T00:12:53.221Z,5.80
2018-05-19T00:15:20.722Z,3.80
2018-05-19T00:17:48.223Z,5.50
2018-05-19T00:20:15.763Z,4.50
2018-05-19T00:22:48.982Z,3.23
2018-05-19T00:25:16.543Z,3.10
2018-05-19T00:27:44.096Z,3.17
2018-05-19T00:30:11.657Z,2.80
2018-05-19T00:32:39.160Z,2.47
2018-05-19T00:35:06.664Z,4.57
2018-05-19T00:37:34.175Z,5.37
2018-05-19T00:40:01.674Z,4.17
2018-05-19T00:42:29.188Z,5.27
2018-05-19T00:44:56.738Z,2.40
2018-05-19T00:47:24.280Z,3.27
2018-05-19T00:49:51.820Z,3.80
2018-05-19T00:52:19.359Z,3.67
2018-05-19T00:54:58.702Z,4.47
2018-05-19T00:57:26.203Z,5.83
2018-05-19T00:59:53.713Z,4.23
2018-05-19T01:02:21.217Z,3.87
2018-05-19T01:04:48.728Z,5.73
2018-05-19T01:07:16.244Z,6.20
2018-05-19T01:09:43.745Z,3.30
2018-05-19T01:12:11.234Z,6.60
2018-05-19T01:14:38.781Z,6.50
2018-05-19T01:17:06.290Z,4.20
2018-05-19T01:19:33.791Z,5.13
2018-05-19T01:22:01.295Z,4.23
2018-05-19T01:24:28.803Z,4.43
2018-05-19T01:26:56.333Z,4.73
2018-05-19T01:29:23.846Z,4.60
2018-05-19T01:31:51.355Z,6.43
2018-05-19T01:34:18.883Z,4.80
2018-05-19T01:36:46.385Z,4.30
2018-05-19T01:39:13.883Z,3.57
2018-05-19T01:41:41.422Z,4.80
2018-05-19T01:44:08.929Z,3.53
2018-05-19T01:46:36.435Z,7.23
2018-05-19T01:49:03.936Z,6.93
2018-05-19T01:51:31.446Z,10.13
2018-05-19T01:53:58.948Z,7.43
2018-05-19T01:56:26.462Z,5.23
2018-05-19T01:58:53.957Z,7.33
2018-05-19T02:01:21.482Z,6.77
2018-05-19T02:03:48.984Z,5.87
2018-05-19T02:06:16.527Z,5.13
2018-05-19T02:08:44.078Z,4.60
2018-05-19T02:11:11.570Z,4.50
2018-05-19T02:13:39.086Z,4.90
2018-05-19T02:16:06.606Z,4.50
2018-05-19T02:18:34.121Z,4.17
2018-05-19T02:21:01.640Z,4.27
2018-05-19T02:23:29.154Z,4.40
2018-05-19T02:25:56.672Z,5.00
2018-05-19T02:28:24.184Z,4.20
2018-05-19T02:30:51.719Z,4.87
2018-05-19T02:33:19.222Z,6.50
2018-05-19T02:35:46.727Z,6.47
2018-05-19T02:38:14.235Z,7.70
2018-05-19T02:40:41.726Z,5.73
2018-05-19T02:43:09.239Z,6.90
2018-05-19T02:45:36.759Z,6.70
2018-05-19T02:48:04.283Z,8.53
2018-05-19T02:50:31.787Z,7.30
2018-05-19T02:52:59.290Z,8.30
2018-05-19T02:55:26.785Z,6.83
2018-05-19T02:57:54.297Z,7.43
2018-05-19T03:00:21.839Z,6.97
2018-05-19T03:02:49.383Z,6.37
2018-05-19T03:05:16.890Z,5.80
2018-05-19T03:07:44.387Z,6.43
2018-05-19T03:10:11.883Z,6.50
2018-05-19T03:12:39.389Z,3.57
2018-05-19T03:15:06.904Z,4.10
2018-05-19T03:17:34.419Z,4.07
2018-05-19T03:20:01.981Z,3.40
2018-05-19T03:22:29.488Z,4.50
2018-05-19T03:24:57.052Z,3.90
2018-05-19T03:27:24.622Z,4.50
2018-05-19T03:29:52.100Z,4.63
2018-05-19T03:32:19.604Z,6.27
2018-05-19T03:34:47.114Z,5.50
2018-05-19T03:37:14.622Z,4.40
2018-05-19T03:39:42.128Z,5.37
2018-05-19T03:42:09.657Z,3.43
2018-05-19T03:44:37.177Z,5.60
2018-05-19T03:47:04.705Z,3.73
2018-05-19T03:49:32.194Z,5.03
2018-05-19T03:51:59.703Z,4.53
2018-05-19T03:54:27.216Z,6.53
2018-05-19T03:56:54.787Z,8.90
2018-05-19T03:59:34.099Z,6.00
2018-05-19T04:05:06.719Z,4.80
2018-05-19T04:07:34.296Z,4.70
2018-05-19T04:10:01.794Z,6.00
2018-05-19T04:12:29.331Z,5.83
2018-05-19T04:14:56.849Z,4.60
2018-05-19T04:17:25.192Z,6.13
2018-05-19T04:19:52.702Z,5.80
2018-05-19T04:22:20.260Z,4.43
2018-05-19T04:24:47.831Z,5.20
2018-05-19T04:27:15.345Z,5.70
2018-05-19T04:29:42.866Z,4.80
2018-05-19T04:32:10.392Z,7.17
2018-05-19T04:34:37.902Z,4.33
2018-05-19T04:37:05.432Z,4.40
2018-05-19T04:39:32.927Z,4.13
2018-05-19T04:42:00.428Z,5.37
2018-05-19T04:44:27.981Z,4.90
2018-05-19T04:46:55.478Z,5.97
2018-05-19T04:49:22.978Z,6.10
2018-05-19T04:51:50.476Z,4.70
2018-05-19T04:54:17.981Z,5.00
2018-05-19T04:56:45.497Z,4.53
2018-05-19T04:59:12.995Z,4.63
2018-05-19T05:01:40.571Z,5.90
2018-05-19T05:04:08.153Z,6.33
2018-05-19T05:06:35.746Z,4.53
2018-05-19T05:09:03.260Z,5.73
2018-05-19T05:11:30.777Z,7.03
2018-05-19T05:13:58.283Z,4.33
2018-05-19T05:16:25.795Z,5.23
2018-05-19T05:18:53.295Z,4.60
2018-05-19T05:21:20.811Z,4.30
2018-05-19T05:23:48.343Z,4.10
2018-05-19T05:26:15.878Z,5.77
2018-05-19T05:28:43.385Z,4.13
2018-05-19T05:31:10.931Z,4.57
2018-05-19T05:33:38.476Z,9.90
2018-05-19T05:36:05.992Z,8.23
2018-05-19T05:38:33.520Z,5.40
2018-05-19T05:41:01.025Z,4.03
2018-05-19T05:43:28.526Z,3.73
2018-05-19T05:45:56.040Z,4.53
2018-05-19T05:48:23.587Z,4.43
2018-05-19T05:50:51.090Z,11.37
2018-05-19T05:53:18.670Z,4.53
2018-05-19T05:55:46.177Z,4.57
2018-05-19T05:58:13.686Z,4.53
2018-05-19T06:00:41.218Z,4.13
2018-05-19T06:03:08.795Z,4.30
2018-05-19T06:05:36.333Z,6.07
2018-05-19T06:08:03.839Z,4.57
2018-05-19T06:10:31.380Z,4.97
2018-05-19T06:12:58.887Z,4.57
2018-05-19T06:15:26.461Z,4.77
2018-05-19T06:17:53.948Z,7.47
2018-05-19T06:20:21.531Z,7.20
2018-05-19T06:22:49.066Z,4.60
2018-05-19T06:25:16.571Z,6.17
2018-05-19T06:27:44.100Z,4.97
2018-05-19T06:30:11.662Z,4.43
2018-05-19T06:32:39.215Z,6.60
2018-05-19T06:35:06.733Z,5.17
2018-05-19T06:37:34.239Z,6.23
2018-05-19T06:40:01.790Z,5.57
2018-05-19T06:42:29.299Z,5.20
2018-05-19T06:44:56.859Z,4.67
2018-05-19T06:47:24.364Z,5.20
2018-05-19T06:49:51.907Z,5.03
2018-05-19T06:52:19.460Z,6.90
2018-05-19T06:54:47.032Z,5.13
2018-05-19T06:57:14.597Z,8.30
2018-05-19T06:59:42.074Z,6.50
2018-05-19T07:02:09.861Z,9.73
2018-05-19T07:04:37.394Z,5.80
2018-05-19T07:07:04.908Z,6.30
2018-05-19T07:09:33.339Z,5.23
2018-05-19T07:12:00.858Z,6.00
2018-05-19T07:14:28.402Z,5.83
2018-05-19T07:16:55.921Z,8.03
2018-05-19T07:19:23.468Z,7.50
2018-05-19T07:21:50.973Z,7.50
2018-05-19T07:24:18.515Z,6.60
2018-05-19T07:26:46.078Z,7.00
2018-05-19T07:29:13.572Z,8.40
2018-05-19T07:31:41.147Z,6.27
2018-05-19T07:34:08.697Z,6.80
2018-05-19T07:36:36.207Z,6.20
2018-05-19T07:39:03.749Z,5.53
2018-05-19T07:41:31.248Z,4.53
2018-05-19T07:43:58.752Z,5.57
2018-05-19T07:46:27.051Z,5.33
2018-05-19T07:48:54.619Z,5.33
2018-05-19T07:51:22.310Z,7.13
2018-05-19T07:53:49.822Z,5.60
2018-05-19T07:56:18.264Z,5.70
2018-05-19T07:58:46.953Z,5.70
2018-05-19T08:01:14.472Z,5.27
2018-05-19T08:03:42.137Z,5.10
2018-05-19T08:06:09.622Z,5.40
2018-05-19T08:08:37.131Z,5.73
2018-05-19T08:11:05.376Z,4.57
2018-05-19T08:13:32.942Z,5.60
2018-05-19T08:16:00.499Z,5.67
2018-05-19T08:18:28.055Z,5.37
2018-05-19T08:20:55.598Z,5.03
2018-05-19T08:23:23.099Z,5.00
2018-05-19T08:25:50.607Z,5.10
2018-05-19T08:28:18.098Z,4.32
2018-05-19T08:30:45.632Z,24.23
2018-05-19T08:33:13.163Z,7.77
2018-05-19T08:35:40.678Z,5.70
2018-05-19T08:38:08.219Z,4.00
2018-05-19T08:40:35.723Z,4.30
2018-05-19T08:43:03.247Z,5.00
2018-05-19T08:45:30.746Z,6.00
2018-05-19T08:47:58.248Z,5.60
2018-05-19T08:50:25.756Z,6.30
2018-05-19T08:52:53.256Z,4.23
2018-05-19T08:55:20.756Z,5.17
2018-05-19T08:57:48.303Z,4.60
2018-05-19T09:00:15.838Z,4.70
2018-05-19T09:02:43.359Z,8.00
2018-05-19T09:05:10.869Z,6.43
2018-05-19T09:07:38.431Z,5.87
2018-05-19T09:10:05.955Z,4.67
2018-05-19T09:12:33.471Z,4.57
2018-05-19T09:15:00.983Z,4.60
2018-05-19T09:17:28.504Z,4.57
2018-05-19T09:19:56.015Z,4.93
2018-05-19T09:22:23.511Z,5.27
2018-05-19T09:24:51.056Z,5.77
2018-05-19T09:27:18.636Z,6.20
2018-05-19T09:29:46.264Z,5.93
2018-05-19T09:32:13.752Z,6.73
2018-05-19T09:34:41.271Z,5.23
2018-05-19T09:37:09.628Z,5.43
2018-05-19T09:39:37.198Z,4.30
2018-05-19T09:42:04.724Z,4.90
2018-05-19T09:44:32.290Z,5.43
2018-05-19T09:46:59.843Z,4.60
2018-05-19T09:49:27.343Z,5.20
2018-05-19T09:51:54.886Z,5.60
2018-05-19T09:54:22.420Z,5.50
2018-05-19T09:56:49.922Z,5.53
2018-05-19T09:59:17.584Z,5.23
2018-05-19T10:01:45.070Z,5.30
2018-05-19T10:04:12.574Z,5.13
2018-05-19T10:06:40.128Z,9.50
2018-05-19T10:09:07.690Z,5.70
2018-05-19T10:11:35.300Z,5.40
2018-05-19T10:14:02.884Z,6.57
2018-05-19T10:16:30.411Z,5.50
2018-05-19T10:18:57.934Z,5.90
2018-05-19T10:21:26.456Z,6.35
2018-05-19T10:23:53.971Z,6.10
2018-05-19T10:26:21.482Z,5.30
2018-05-19T10:28:49.007Z,6.35
2018-05-19T10:31:16.558Z,5.30
2018-05-19T10:33:44.096Z,6.25
2018-05-19T10:36:11.621Z,5.55
2018-05-19T10:38:39.131Z,5.90
2018-05-19T10:41:06.635Z,5.37
2018-05-19T10:43:34.165Z,11.70
2018-05-19T10:46:01.659Z,5.28
2018-05-19T10:48:29.212Z,4.78
2018-05-19T10:50:56.760Z,5.78
2018-05-19T10:53:24.278Z,6.00
2018-05-19T10:55:51.796Z,5.60
2018-05-19T10:58:19.295Z,6.87
2018-05-19T11:00:46.818Z,5.95
2018-05-19T11:03:14.381Z,5.25
2018-05-19T11:05:41.894Z,5.28
2018-05-19T11:08:09.406Z,5.25
2018-05-19T11:10:36.928Z,5.15
2018-05-19T11:13:04.431Z,5.57
2018-05-19T11:15:31.941Z,7.60
2018-05-19T11:17:59.450Z,6.87
2018-05-19T11:20:26.962Z,5.50
2018-05-19T11:22:54.472Z,4.80
2018-05-19T11:25:22.009Z,4.83
2018-05-19T11:27:49.511Z,5.60
2018-05-19T11:30:17.060Z,4.47
2018-05-19T11:32:44.574Z,4.50
2018-05-19T11:35:12.080Z,4.40
2018-05-19T11:37:39.582Z,5.20
2018-05-19T11:40:07.197Z,7.27
2018-05-19T11:42:34.655Z,4.80
2018-05-19T11:45:02.172Z,4.90
2018-05-19T11:47:29.699Z,5.10
2018-05-19T11:49:57.203Z,5.40
2018-05-19T11:52:24.700Z,5.20
2018-05-19T11:54:52.222Z,6.40
2018-05-19T11:57:19.728Z,5.50
2018-05-19T11:59:47.270Z,6.90
2018-05-19T12:02:15.612Z,6.60
2018-05-19T12:04:43.166Z,6.35
2018-05-19T12:07:10.677Z,9.25
2018-05-19T12:09:38.211Z,5.78
2018-05-19T12:12:05.955Z,5.62
2018-05-19T12:14:33.391Z,5.10
2018-05-19T12:17:00.931Z,5.90
2018-05-19T12:19:28.445Z,5.15
2018-05-19T12:21:55.988Z,5.90
2018-05-19T12:24:23.525Z,10.45
2018-05-19T12:26:51.048Z,7.95
2018-05-19T12:29:18.607Z,4.90
2018-05-19T12:31:46.127Z,5.33
2018-05-19T12:34:13.667Z,5.20
2018-05-19T12:36:41.176Z,6.77
2018-05-19T12:39:08.688Z,6.37
2018-05-19T12:41:36.329Z,5.10
2018-05-19T12:44:03.797Z,7.43
2018-05-19T12:46:31.349Z,9.50
2018-05-19T12:48:58.868Z,5.57
2018-05-19T12:51:26.447Z,5.37
2018-05-19T12:53:54.017Z,6.90
2018-05-19T12:56:21.539Z,5.47
2018-05-19T12:58:49.051Z,5.77
2018-05-19T13:01:16.627Z,5.73
2018-05-19T13:03:44.173Z,5.63
2018-05-19T13:06:11.720Z,5.60
2018-05-19T13:08:39.231Z,5.20
2018-05-19T13:11:06.746Z,6.00
2018-05-19T13:13:34.360Z,6.93
2018-05-19T13:16:01.869Z,6.17
2018-05-19T13:18:29.411Z,6.43
2018-05-19T13:20:56.981Z,7.20
2018-05-19T13:23:24.771Z,7.13
2018-05-19T13:25:52.327Z,7.07
2018-05-19T13:28:19.877Z,6.73
2018-05-19T13:30:47.395Z,6.10
2018-05-19T13:33:14.916Z,6.50
2018-05-19T13:35:43.461Z,7.60
2018-05-19T13:38:10.969Z,5.93
2018-05-19T13:40:38.523Z,5.40
2018-05-19T13:43:06.044Z,6.23
2018-05-19T13:45:33.569Z,7.17
2018-05-19T13:48:01.090Z,6.43
2018-05-19T13:50:28.630Z,5.50
2018-05-19T13:52:56.155Z,6.13
2018-05-19T13:55:23.671Z,5.67
2018-05-19T13:57:51.260Z,6.63
2018-05-19T14:00:18.837Z,6.23
2018-05-19T14:02:46.332Z,6.03
2018-05-19T14:05:13.872Z,5.67
2018-05-19T14:07:41.415Z,6.33
2018-05-19T14:10:09.252Z,5.57
2018-05-19T14:12:36.762Z,6.07
2018-05-19T14:15:04.281Z,6.27
2018-05-19T14:17:31.796Z,6.70
2018-05-19T14:19:59.338Z,5.87
2018-05-19T14:22:26.844Z,6.30
2018-05-19T14:24:54.355Z,5.37
2018-05-19T14:27:21.864Z,5.47
2018-05-19T14:29:49.713Z,5.20
2018-05-19T14:32:17.216Z,5.13
2018-05-19T14:34:44.786Z,5.50
2018-05-19T14:37:12.324Z,5.70
2018-05-19T14:39:39.868Z,9.70
2018-05-19T14:42:07.393Z,15.70
2018-05-19T14:44:35.705Z,10.43
2018-05-19T14:47:03.219Z,5.73
2018-05-19T14:49:30.741Z,6.80
2018-05-19T14:51:58.298Z,7.67
2018-05-19T14:54:25.801Z,9.60
2018-05-19T14:56:53.328Z,10.47
2018-05-19T14:59:20.896Z,7.50
2018-05-19T15:01:48.439Z,9.87
2018-05-19T15:04:15.969Z,8.63
2018-05-19T15:06:43.511Z,13.57
2018-05-19T15:09:11.036Z,11.37
2018-05-19T15:11:38.558Z,9.77
2018-05-19T15:14:06.127Z,13.43
2018-05-19T15:16:34.603Z,10.47
2018-05-19T15:19:02.118Z,17.87
2018-05-19T15:21:29.619Z,9.70
2018-05-19T15:23:57.130Z,12.53
2018-05-19T15:26:24.651Z,7.70
2018-05-19T15:28:52.153Z,7.73
2018-05-19T15:31:19.683Z,8.17
2018-05-19T15:33:47.202Z,7.77
2018-05-19T15:36:14.720Z,7.13
2018-05-19T15:38:42.240Z,8.20
2018-05-19T15:41:09.814Z,7.40
2018-05-19T15:43:37.322Z,7.23
2018-05-19T15:46:04.893Z,7.03
2018-05-19T15:48:32.403Z,7.27
2018-05-19T15:50:59.903Z,7.37
2018-05-19T15:53:27.412Z,11.00
2018-05-19T15:55:54.986Z,20.23
2018-05-19T15:58:22.494Z,8.60
2018-05-19T16:00:50.094Z,26.53
2018-05-19T16:03:17.626Z,8.10
2018-05-19T16:05:45.245Z,8.30
2018-05-19T16:08:12.771Z,7.70
2018-05-19T16:10:40.285Z,8.00
2018-05-19T16:13:07.812Z,8.03
2018-05-19T16:15:35.344Z,7.30
2018-05-19T16:18:02.856Z,14.00
2018-05-19T16:20:30.380Z,8.57
2018-05-19T16:22:57.904Z,21.97
2018-05-19T16:25:25.420Z,10.73
2018-05-19T16:27:52.919Z,10.43
2018-05-19T16:30:20.468Z,8.37
2018-05-19T16:32:48.016Z,8.03
2018-05-19T16:35:15.515Z,9.67
2018-05-19T16:37:43.034Z,8.83
2018-05-19T16:40:10.538Z,7.90
2018-05-19T16:42:38.047Z,7.67
2018-05-19T16:45:05.575Z,6.80
2018-05-19T16:47:33.080Z,9.27
2018-05-19T16:50:00.611Z,6.27
2018-05-19T16:52:28.162Z,7.93
2018-05-19T16:54:55.664Z,7.93
2018-05-19T16:57:23.164Z,8.77
2018-05-19T16:59:50.680Z,8.90
2018-05-19T17:02:18.206Z,9.23
2018-05-19T17:04:45.699Z,8.20
2018-05-19T17:07:13.215Z,10.83
2018-05-19T17:09:40.719Z,11.40
2018-05-19T17:12:08.284Z,10.57
2018-05-19T17:14:35.808Z,13.63
2018-05-19T17:17:03.327Z,10.40
2018-05-19T17:19:30.847Z,14.93
2018-05-19T17:21:58.419Z,10.20
2018-05-19T17:24:25.928Z,12.33
2018-05-19T17:26:53.440Z,10.23
2018-05-19T17:29:21.565Z,16.03
2018-05-19T17:31:49.078Z,9.27
2018-05-19T17:34:16.589Z,9.10
2018-05-19T17:36:44.095Z,10.83
2018-05-19T17:39:12.095Z,8.50
2018-05-19T17:41:39.623Z,8.43
2018-05-19T17:44:07.126Z,8.73
2018-05-19T17:46:34.687Z,9.07
2018-05-19T17:49:02.218Z,9.20
2018-05-19T17:51:29.724Z,10.43
2018-05-19T17:53:57.251Z,9.80
2018-05-19T17:56:24.847Z,10.07
2018-05-19T17:58:52.382Z,9.50
2018-05-19T18:01:19.921Z,7.97
2018-05-19T18:03:47.508Z,8.73
2018-05-19T18:06:15.051Z,9.37
2018-05-19T18:08:42.846Z,8.67
2018-05-19T18:11:10.429Z,9.77
2018-05-19T18:13:37.968Z,9.80
2018-05-19T18:16:05.482Z,11.23
2018-05-19T18:18:33.018Z,15.37
2018-05-19T18:21:00.556Z,14.20
2018-05-19T18:23:28.080Z,13.63
2018-05-19T18:25:55.612Z,10.17
2018-05-19T18:28:23.383Z,10.83
2018-05-19T18:30:50.951Z,10.57
2018-05-19T18:33:18.469Z,11.10
2018-05-19T18:35:46.094Z,10.23
2018-05-19T18:38:13.620Z,9.20
2018-05-19T18:40:41.160Z,8.93
2018-05-19T18:43:08.816Z,9.87
2018-05-19T18:45:36.375Z,8.87
2018-05-19T18:48:03.939Z,9.90
2018-05-19T18:50:31.535Z,10.70
2018-05-19T18:53:00.824Z,10.00
2018-05-19T18:55:28.383Z,12.20
2018-05-19T18:57:55.931Z,11.50
2018-05-19T19:00:23.499Z,10.03
2018-05-19T19:02:51.048Z,9.77
2018-05-19T19:05:18.561Z,12.23
2018-05-19T19:07:46.414Z,12.30
2018-05-19T19:10:14.239Z,10.13
2018-05-19T19:12:41.798Z,10.60
2018-05-19T19:15:09.304Z,11.57
2018-05-19T19:17:36.821Z,11.07
2018-05-19T19:20:04.340Z,9.87
2018-05-19T19:22:31.932Z,11.60
2018-05-19T19:24:59.448Z,10.27
2018-05-19T19:27:27.617Z,11.17
2018-05-19T19:29:55.206Z,11.93
2018-05-19T19:32:22.809Z,10.17
2018-05-19T19:34:50.389Z,10.80
2018-05-19T19:37:17.932Z,10.73
2018-05-19T19:39:45.457Z,10.90
2018-05-19T19:42:12.977Z,10.17
2018-05-19T19:44:40.525Z,11.30
2018-05-19T19:47:08.419Z,12.13
2018-05-19T19:49:37.744Z,11.37
2018-05-19T19:52:06.478Z,11.17
2018-05-19T19:54:34.005Z,11.57
2018-05-19T19:57:01.536Z,13.83
2018-05-19T19:59:29.091Z,13.63
2018-05-19T20:01:59.142Z,15.93
2018-05-19T20:04:27.813Z,12.67
2018-05-19T20:06:55.686Z,11.90
2018-05-19T20:09:23.225Z,13.57
2018-05-19T20:11:51.014Z,13.87
2018-05-19T20:14:18.898Z,13.17
2018-05-19T20:16:46.420Z,12.50
2018-05-19T20:19:13.935Z,13.37
2018-05-19T20:21:41.500Z,12.30
2018-05-19T20:24:09.019Z,12.50
2018-05-19T20:26:36.615Z,13.27
2018-05-19T20:29:04.217Z,13.20
2018-05-19T20:31:31.769Z,12.53
2018-05-19T20:33:59.315Z,13.60
2018-05-19T20:36:26.823Z,14.27
2018-05-19T20:38:56.190Z,13.53
2018-05-19T20:41:23.980Z,14.77
2018-05-19T20:43:51.579Z,15.33
2018-05-19T20:46:19.419Z,13.73
2018-05-19T20:48:46.941Z,14.00
2018-05-19T20:51:14.631Z,12.57
2018-05-19T20:53:42.184Z,13.90
2018-05-19T20:56:09.750Z,12.60
2018-05-19T20:58:37.277Z,14.13
2018-05-19T21:01:04.851Z,15.67
2018-05-19T21:03:32.457Z,19.90
2018-05-19T21:06:00.001Z,20.03
2018-05-19T21:08:27.528Z,29.70
2018-05-19T21:10:55.055Z,31.60
2018-05-19T21:13:22.575Z,33.80
2018-05-19T21:15:50.147Z,29.10
2018-05-19T21:18:17.680Z,28.20
2018-05-19T21:20:45.191Z,31.10
2018-05-19T21:23:12.720Z,24.73
2018-05-19T21:25:41.852Z,17.83
2018-05-19T21:28:09.533Z,15.33
2018-05-19T21:30:37.058Z,14.07
2018-05-19T21:33:04.631Z,14.30
2018-05-19T21:35:32.205Z,14.53
2018-05-19T21:37:59.745Z,14.70
2018-05-19T21:40:27.275Z,15.50
2018-05-19T21:42:55.393Z,15.20
2018-05-19T21:45:22.906Z,14.90
2018-05-19T21:47:51.111Z,15.07
2018-05-19T21:50:18.665Z,16.53
2018-05-19T21:52:46.595Z,17.00
2018-05-19T21:55:14.139Z,18.40
2018-05-19T21:57:42.411Z,20.47
2018-05-19T22:00:09.996Z,19.47
2018-05-19T22:02:37.552Z,15.27
2018-05-19T22:05:05.071Z,13.93
2018-05-19T22:07:33.080Z,13.57
2018-05-19T22:10:00.596Z,14.33
2018-05-19T22:12:28.108Z,15.00
2018-05-19T22:14:55.617Z,14.00
2018-05-19T22:17:23.125Z,15.73
2018-05-19T22:19:50.767Z,15.60
2018-05-19T22:22:18.480Z,15.83
2018-05-19T22:24:45.964Z,15.30
2018-05-19T22:27:13.488Z,16.27
2018-05-19T22:29:40.997Z,17.13
2018-05-19T22:32:08.507Z,16.37
2018-05-19T22:34:36.024Z,15.67
2018-05-19T22:37:03.561Z,17.33
2018-05-19T22:39:31.112Z,17.17
2018-05-19T22:41:58.628Z,16.63
2018-05-19T22:44:26.188Z,16.13
2018-05-19T22:46:53.972Z,15.53
2018-05-19T22:49:21.500Z,15.47
2018-05-19T22:51:49.012Z,16.07
2018-05-19T22:54:16.568Z,17.63
2018-05-19T22:56:44.096Z,15.90
2018-05-19T22:59:11.607Z,16.30
2018-05-19T23:01:39.134Z,15.53
2018-05-19T23:04:06.704Z,15.10
2018-05-19T23:06:34.224Z,15.73
2018-05-19T23:09:01.738Z,16.30
2018-05-19T23:11:29.261Z,15.40
2018-05-19T23:13:56.780Z,16.33
2018-05-19T23:16:24.290Z,16.10
2018-05-19T23:18:51.848Z,15.97
2018-05-19T23:21:19.373Z,15.40
2018-05-19T23:23:46.902Z,16.53
2018-05-19T23:26:14.440Z,15.63
2018-05-19T23:28:41.951Z,16.03
2018-05-19T23:31:09.531Z,17.10
2018-05-19T23:33:37.065Z,17.07
2018-05-19T23:36:04.607Z,15.97
2018-05-19T23:38:32.206Z,15.97
2018-05-19T23:40:59.876Z,16.07
2018-05-19T23:43:27.417Z,17.53
2018-05-19T23:45:54.933Z,18.30
2018-05-19T23:48:22.493Z,17.80
2018-05-19T23:50:50.008Z,17.70
2018-05-19T23:53:17.540Z,17.97
2018-05-19T23:55:45.911Z,16.03
2018-05-19T23:58:13.438Z,16.10
